logo
Search for airport 
image banner adimage banner adimage banner ad
image banner ad

LODC - Oamtc/St. Michael

Located in District Leoben, Austria

ICAO - , IATA -

Data provided by Airmate  

General information

Coordinates: N47°20'9" E15°0'4"
Elevation is 1872 feet MSL.
 
View others Airports in Styria

Operational data

Special qualification required
Current time UTC:
Current local time:
Weather at : LOXZ - Zeltweg ( 24 km )
METAR: LOXZ 171850Z VRB02KT 9999 FEW070 BKN140 04/01 Q1006
TAF: TAF LOXZ 171115Z 1712/1721 VRB03KT 9999 FEW030 SCT060 TEMPO 1712/1717 07012KT -SHRA SCT030 FEW035TCU BKN050 PROB30 TEMPO 1713/1715 VRB10G20KT 5000 TSRA FEW010 BKN030 FEW040CB
View NOTAMs / SUP AIP / TFR affecting this airport [VIEW]
Communications frequencies: [VIEW]

Runways:

Airport contact information

Address: District Leoben Austria

Satellite view of LODC